Time;durP1;ratioP1;P1;durP2;ratioP2;P2;SDS_P1;SDS_P2;PMS_P1;PMS_P2;Temp;Humidity;BMP_temperature;BMP_pressure;BME280_temperature;BME280_humidity;BME280_pressure;Samples;Min_cycle;Max_cycle;Signal;HPM_P1;HPM_P2
2024/04/12 00:00:21;;;;;;;12.75;8.23;;;24.60;46.20;;;;;;6581417;26;80375;-57
2024/04/12 00:03:21;;;;;;;13.85;7.35;;;24.60;46.20;;;;;;6580182;26;85936;-57
2024/04/12 00:06:25;;;;;;;15.45;7.95;;;24.60;46.30;;;;;;6581341;26;78963;-58
2024/04/12 00:09:26;;;;;;;14.98;8.45;;;24.60;46.30;;;;;;6585137;26;79824;-57
2024/04/12 00:12:26;;;;;;;12.45;7.10;;;24.60;46.20;;;;;;6582196;26;80768;-58
2024/04/12 00:15:29;;;;;;;12.77;7.53;;;24.60;46.20;;;;;;6582004;26;79168;-57
2024/04/12 00:18:30;;;;;;;13.45;7.22;;;24.60;46.20;;;;;;6597096;26;79561;-58
2024/04/12 00:21:32;;;;;;;13.23;8.20;;;24.60;46.10;;;;;;6581795;26;82001;-56
2024/04/12 00:24:36;;;;;;;17.27;8.00;;;24.50;46.00;;;;;;6604109;26;79108;-57
2024/04/12 00:27:37;;;;;;;15.75;8.23;;;24.60;46.20;;;;;;6581829;26;79475;-56
2024/04/12 00:30:37;;;;;;;10.63;7.70;;;24.60;46.10;;;;;;6605007;26;79167;-56
2024/04/12 00:33:40;;;;;;;14.85;7.50;;;24.60;45.90;;;;;;6605334;26;79152;-54
2024/04/12 00:36:43;;;;;;;15.68;8.00;;;24.50;45.80;;;;;;6602374;26;78668;-64
2024/04/12 00:39:48;;;;;;;14.48;8.10;;;24.50;46.00;;;;;;6604261;26;80251;-64
2024/04/12 00:42:48;;;;;;;15.07;8.00;;;24.50;45.90;;;;;;6580382;26;79425;-65
2024/04/12 00:45:49;;;;;;;11.32;7.18;;;24.50;45.90;;;;;;6582251;26;79181;-65
2024/04/12 00:48:51;;;;;;;15.25;7.15;;;24.50;45.80;;;;;;6581760;26;78849;-66
2024/04/12 00:51:52;;;;;;;15.45;7.40;;;24.50;46.10;;;;;;6581478;26;82276;-65
2024/04/12 00:54:53;;;;;;;9.50;6.53;;;24.50;46.00;;;;;;6581323;26;80383;-65
2024/04/12 00:57:53;;;;;;;11.75;6.93;;;24.50;46.10;;;;;;6582860;26;78934;-64
2024/04/12 01:00:54;;;;;;;11.70;7.47;;;24.50;46.20;;;;;;6582589;26;79393;-66
2024/04/12 01:03:55;;;;;;;13.10;7.38;;;24.50;46.10;;;;;;6589624;26;79553;-65
2024/04/12 01:06:58;;;;;;;12.77;7.45;;;24.40;45.80;;;;;;6603994;26;80177;-64
2024/04/12 01:10:00;;;;;;;13.48;7.05;;;24.50;46.10;;;;;;6616508;26;79110;-66
2024/04/12 01:13:04;;;;;;;13.45;7.05;;;24.40;45.80;;;;;;6581331;26;79235;-55
2024/04/12 01:16:05;;;;;;;9.73;6.35;;;24.40;46.00;;;;;;6581014;26;80245;-55
2024/04/12 01:19:06;;;;;;;12.20;7.35;;;24.40;46.70;;;;;;6583394;26;79269;-57
2024/04/12 01:22:06;;;;;;;14.18;7.28;;;24.40;46.30;;;;;;6582412;26;78764;-55
2024/04/12 01:25:07;;;;;;;11.07;7.25;;;24.40;46.00;;;;;;6581035;26;80722;-55
2024/04/12 01:28:09;;;;;;;12.27;7.07;;;24.40;46.00;;;;;;6604097;26;79136;-57
2024/04/12 01:31:14;;;;;;;14.73;7.18;;;24.40;46.20;;;;;;6577970;26;79272;-54
2024/04/12 01:34:15;;;;;;;11.65;6.88;;;24.40;46.10;;;;;;6576984;26;79417;-57
2024/04/12 01:37:20;;;;;;;10.20;6.70;;;24.40;46.00;;;;;;6579039;26;79296;-54
2024/04/12 01:40:23;;;;;;;12.23;7.20;;;24.40;46.00;;;;;;6602860;26;79120;-57
2024/04/12 01:43:26;;;;;;;13.65;6.50;;;24.40;46.10;;;;;;6579747;26;80261;-57
2024/04/12 01:46:27;;;;;;;13.82;6.45;;;24.40;46.20;;;;;;6581544;26;81402;-56
2024/04/12 01:49:30;;;;;;;11.55;6.38;;;24.40;46.10;;;;;;6624588;26;79950;-64
2024/04/12 01:52:31;;;;;;;12.13;6.90;;;24.40;46.20;;;;;;6584617;26;79157;-65
2024/04/12 01:55:32;;;;;;;11.23;7.03;;;24.40;46.10;;;;;;6584492;26;78752;-64
2024/04/12 01:58:37;;;;;;;11.00;6.97;;;24.40;46.30;;;;;;6614217;26;78963;-65
2024/04/12 02:01:39;;;;;;;10.85;6.25;;;24.40;45.80;;;;;;6594897;26;79929;-66
2024/04/12 02:04:40;;;;;;;13.88;8.20;;;24.30;45.90;;;;;;6620236;26;79078;-65
2024/04/12 02:07:40;;;;;;;9.60;6.53;;;24.30;46.00;;;;;;6607096;26;82187;-54
2024/04/12 02:10:41;;;;;;;10.75;7.53;;;24.30;45.50;;;;;;6603144;26;78617;-56
2024/04/12 02:13:42;;;;;;;14.00;6.95;;;24.30;45.60;;;;;;6604391;26;80395;-57
2024/04/12 02:16:42;;;;;;;11.63;6.55;;;24.30;45.70;;;;;;6614986;26;79269;-57
2024/04/12 02:19:46;;;;;;;12.80;6.78;;;24.30;45.50;;;;;;6583305;26;82343;-55
2024/04/12 02:22:49;;;;;;;11.35;7.25;;;24.30;45.50;;;;;;6584713;26;79610;-54
2024/04/12 02:25:50;;;;;;;9.05;6.07;;;24.30;45.70;;;;;;6584694;26;79982;-53
2024/04/12 02:28:51;;;;;;;10.00;6.78;;;24.30;45.50;;;;;;6584298;26;79549;-54
2024/04/12 02:31:55;;;;;;;8.43;6.05;;;24.30;45.40;;;;;;6581441;26;79586;-56
2024/04/12 02:34:57;;;;;;;10.27;6.47;;;24.30;45.50;;;;;;6583231;26;80889;-56
2024/04/12 02:37:58;;;;;;;8.90;5.93;;;24.30;45.40;;;;;;6582664;26;79002;-56
2024/04/12 02:40:58;;;;;;;10.57;6.18;;;24.30;45.60;;;;;;6583089;26;86170;-56
2024/04/12 02:44:03;;;;;;;10.55;5.95;;;24.30;46.00;;;;;;6581214;26;79127;-55
2024/04/12 02:47:04;;;;;;;10.97;6.40;;;24.30;45.70;;;;;;6581910;26;79009;-55
2024/04/12 02:50:09;;;;;;;9.57;5.80;;;24.30;45.50;;;;;;6584241;26;79041;-54
2024/04/12 02:53:17;;;;;;;10.85;6.93;;;24.30;45.80;;;;;;6570750;26;81600;-54
2024/04/12 02:56:17;;;;;;;11.00;6.43;;;24.30;46.00;;;;;;6582018;26;78830;-53
2024/04/12 02:59:18;;;;;;;9.02;5.60;;;24.30;45.80;;;;;;6582673;26;79258;-56
2024/04/12 03:02:19;;;;;;;11.00;6.38;;;24.30;45.80;;;;;;6581375;26;80084;-57
2024/04/12 03:05:19;;;;;;;11.20;6.70;;;24.30;45.70;;;;;;6587860;26;82585;-55
2024/04/12 03:08:20;;;;;;;10.85;6.70;;;24.30;46.30;;;;;;6595922;26;80210;-56
2024/04/12 03:11:21;;;;;;;10.32;6.47;;;24.30;45.70;;;;;;6581159;26;80866;-57
2024/04/12 03:14:22;;;;;;;8.65;6.00;;;24.30;45.90;;;;;;6583401;26;80403;-58
2024/04/12 03:17:22;;;;;;;9.63;5.50;;;24.30;45.80;;;;;;6580380;26;79222;-57
2024/04/12 03:20:23;;;;;;;9.40;5.90;;;24.30;45.80;;;;;;6581360;26;78926;-59
2024/04/12 03:23:25;;;;;;;9.68;6.20;;;24.30;45.40;;;;;;6582375;26;79383;-56
2024/04/12 03:26:25;;;;;;;11.38;5.85;;;24.40;45.60;;;;;;6580165;26;78714;-56
2024/04/12 03:29:27;;;;;;;9.85;5.45;;;24.40;45.80;;;;;;6580932;26;81239;-58
2024/04/12 03:32:32;;;;;;;10.98;5.57;;;24.50;45.80;;;;;;6580334;26;80157;-53
2024/04/12 03:35:32;;;;;;;9.57;5.88;;;24.60;45.60;;;;;;6582740;26;79148;-54
2024/04/12 03:38:36;;;;;;;7.70;5.07;;;24.60;45.40;;;;;;6587300;26;79289;-56
2024/04/12 03:41:38;;;;;;;9.05;5.25;;;24.70;45.40;;;;;;6588899;26;79983;-56
2024/04/12 03:44:38;;;;;;;9.73;5.38;;;24.70;45.20;;;;;;6587385;26;80795;-57
2024/04/12 03:47:39;;;;;;;8.00;5.38;;;24.70;45.20;;;;;;6582368;26;80706;-56
2024/04/12 03:50:41;;;;;;;8.73;5.30;;;24.80;45.10;;;;;;6581675;26;79366;-58
2024/04/12 03:53:41;;;;;;;9.55;4.50;;;24.80;45.00;;;;;;6582094;26;79014;-58
2024/04/12 03:56:43;;;;;;;9.75;5.43;;;24.80;45.00;;;;;;6592411;26;79900;-59
2024/04/12 03:59:44;;;;;;;11.63;6.13;;;24.90;45.00;;;;;;6591745;26;79208;-56
2024/04/12 04:02:48;;;;;;;8.55;5.57;;;24.90;45.00;;;;;;6544473;26;80167;-51
2024/04/12 04:05:53;;;;;;;10.95;5.40;;;24.90;45.00;;;;;;6581268;26;78879;-57
2024/04/12 04:08:53;;;;;;;14.40;5.70;;;25.00;45.10;;;;;;6605139;26;78996;-52
2024/04/12 04:11:54;;;;;;;13.10;6.00;;;25.00;45.10;;;;;;6580996;26;80157;-52
2024/04/12 04:14:55;;;;;;;13.75;6.18;;;25.00;45.10;;;;;;6572411;26;80778;-50
2024/04/12 04:17:55;;;;;;;10.57;5.68;;;25.10;45.60;;;;;;6581891;26;79140;-61
2024/04/12 04:20:56;;;;;;;11.30;5.30;;;25.10;45.70;;;;;;6581851;26;78903;-59
2024/04/12 04:23:58;;;;;;;10.90;5.20;;;25.10;45.70;;;;;;6582661;26;80631;-60
2024/04/12 04:26:58;;;;;;;12.13;5.68;;;25.10;45.70;;;;;;6595918;26;78992;-59
2024/04/12 04:30:00;;;;;;;9.35;4.97;;;25.10;45.80;;;;;;6577631;26;79861;-57
2024/04/12 04:33:01;;;;;;;11.85;4.90;;;25.10;45.80;;;;;;6581010;26;78975;-60
2024/04/12 04:36:09;;;;;;;10.50;5.20;;;25.10;45.80;;;;;;6601949;26;80428;-52
2024/04/12 04:39:15;;;;;;;11.98;5.60;;;25.20;45.70;;;;;;6582193;26;78825;-54
2024/04/12 04:42:16;;;;;;;18.83;5.65;;;25.20;45.80;;;;;;6583300;26;83279;-51
2024/04/12 04:45:21;;;;;;;9.60;4.72;;;25.20;45.80;;;;;;6585043;26;79338;-57
2024/04/12 04:48:22;;;;;;;13.88;5.32;;;25.20;46.00;;;;;;6570235;26;84216;-54
2024/04/12 04:51:23;;;;;;;7.72;5.00;;;25.20;45.90;;;;;;6565794;26;79108;-56
2024/04/12 04:54:24;;;;;;;8.65;4.40;;;25.20;45.90;;;;;;6570432;26;79665;-63
2024/04/12 04:57:25;;;;;;;10.00;5.35;;;25.20;46.30;;;;;;6587384;26;79100;-65
2024/04/12 05:00:40;;;;;;;7.30;4.65;;;25.20;46.40;;;;;;6575466;26;79507;-63
2024/04/12 05:03:41;;;;;;;9.48;5.13;;;25.20;46.50;;;;;;6575429;26;83096;-63
2024/04/12 05:06:41;;;;;;;9.63;5.03;;;25.30;46.60;;;;;;6580706;26;79266;-64
2024/04/12 05:09:44;;;;;;;9.57;5.32;;;25.20;46.60;;;;;;6603630;26;79463;-66
2024/04/12 05:12:45;;;;;;;8.10;4.60;;;25.20;46.60;;;;;;6580450;26;79444;-60
2024/04/12 05:18:48;;;;;;;10.13;4.90;;;25.30;46.70;;;;;;6574554;26;78509;-59
2024/04/12 05:21:48;;;;;;;7.20;3.78;;;25.20;46.60;;;;;;6525829;26;80336;-60
2024/04/12 05:24:52;;;;;;;11.55;5.40;;;25.30;46.50;;;;;;6560973;26;79001;-59
2024/04/12 05:27:53;;;;;;;8.43;4.88;;;25.20;46.50;;;;;;6572446;26;79536;-60
2024/04/12 05:30:54;;;;;;;8.70;5.10;;;25.30;46.40;;;;;;6585259;26;78804;-54
2024/04/12 05:33:55;;;;;;;8.00;4.78;;;25.20;46.90;;;;;;6578708;26;82554;-53
2024/04/12 05:37:03;;;;;;;7.18;4.95;;;25.30;46.30;;;;;;6571146;26;79597;-52
2024/04/12 05:40:04;;;;;;;11.50;4.70;;;25.20;46.20;;;;;;6577599;26;78806;-51
2024/04/12 05:43:13;;;;;;;10.02;4.72;;;25.20;46.30;;;;;;6571687;26;84957;-55
2024/04/12 05:46:13;;;;;;;8.98;4.40;;;25.20;46.30;;;;;;6569084;26;78801;-55
2024/04/12 05:49:14;;;;;;;8.48;5.43;;;25.20;47.00;;;;;;6576366;26;82333;-55
2024/04/12 05:52:19;;;;;;;8.80;4.90;;;25.20;46.30;;;;;;6576787;26;81344;-63
2024/04/12 05:55:20;;;;;;;9.20;4.90;;;25.20;46.20;;;;;;6561346;26;78720;-61
2024/04/12 05:58:24;;;;;;;6.97;4.63;;;25.20;46.20;;;;;;6580961;26;79094;-61
2024/04/12 06:01:24;;;;;;;9.70;4.25;;;25.30;46.30;;;;;;6580116;26;83221;-61
2024/04/12 06:04:25;;;;;;;10.07;4.32;;;25.30;46.40;;;;;;6580880;26;78921;-61
2024/04/12 06:07:26;;;;;;;8.48;4.60;;;25.30;46.50;;;;;;6589334;26;81119;-57
2024/04/12 06:10:29;;;;;;;9.43;4.55;;;25.30;46.50;;;;;;6574215;26;78796;-56
2024/04/12 06:13:29;;;;;;;6.47;4.50;;;25.30;46.50;;;;;;6580799;26;79058;-57
2024/04/12 06:16:30;;;;;;;8.77;4.32;;;25.40;46.50;;;;;;6580198;26;79025;-54
2024/04/12 06:19:37;;;;;;;9.73;4.75;;;25.40;46.50;;;;;;6582063;26;79062;-55
2024/04/12 06:22:37;;;;;;;5.70;4.32;;;25.40;46.50;;;;;;6574937;26;79308;-55
2024/04/12 06:25:38;;;;;;;7.13;4.40;;;25.40;46.60;;;;;;6583950;26;79269;-60
2024/04/12 06:28:41;;;;;;;8.63;4.40;;;25.40;46.60;;;;;;6581852;26;83611;-60
2024/04/12 06:31:41;;;;;;;8.27;4.40;;;25.50;46.70;;;;;;6580396;26;80109;-61
2024/04/12 06:34:42;;;;;;;9.95;4.68;;;25.50;46.60;;;;;;6579513;26;79929;-60
2024/04/12 06:37:44;;;;;;;5.18;3.78;;;25.50;46.70;;;;;;6578148;26;78780;-61
2024/04/12 06:40:44;;;;;;;7.57;4.10;;;25.50;46.70;;;;;;6584124;26;78818;-60
2024/04/12 06:43:45;;;;;;;7.05;4.40;;;25.50;46.70;;;;;;6586234;26;79164;-60
2024/04/12 06:46:46;;;;;;;7.85;4.60;;;25.50;46.70;;;;;;6585259;26;79158;-60
2024/04/12 06:49:47;;;;;;;5.95;4.35;;;25.50;46.70;;;;;;6597498;26;81517;-60
2024/04/12 06:52:54;;;;;;;8.63;4.43;;;25.50;46.80;;;;;;6578535;26;79111;-59
2024/04/12 06:55:55;;;;;;;8.13;4.40;;;25.50;46.70;;;;;;6585713;26;78496;-55
2024/04/12 06:58:55;;;;;;;6.55;4.05;;;25.50;46.70;;;;;;6582767;26;78816;-60
2024/04/12 07:01:56;;;;;;;6.65;4.13;;;25.60;46.70;;;;;;6583944;26;81170;-55
2024/04/12 07:04:59;;;;;;;8.93;5.15;;;25.50;46.70;;;;;;6582163;26;78409;-56
2024/04/12 07:08:05;;;;;;;7.65;4.78;;;25.60;46.70;;;;;;6583893;26;80981;-55
2024/04/12 07:11:07;;;;;;;;;;;25.60;46.70;;;;;;6565593;26;80948;-55
2024/04/12 07:14:08;;;;;;;6.72;4.13;;;25.60;46.90;;;;;;6586074;26;78526;-55
2024/04/12 07:17:28;;;;;;;11.23;4.22;;;25.60;46.60;;;;;;6582173;26;78515;-57
2024/04/12 07:20:36;;;;;;;6.18;3.90;;;25.70;46.70;;;;;;6582437;26;80957;-56
2024/04/12 07:23:37;;;;;;;8.43;4.70;;;25.70;46.60;;;;;;6585401;26;79151;-56
2024/04/12 07:26:37;;;;;;;7.15;4.57;;;25.70;46.60;;;;;;6585885;26;79355;-53
2024/04/12 07:29:42;;;;;;;7.03;3.92;;;25.70;46.70;;;;;;6581487;26;84191;-56
2024/04/12 07:32:44;;;;;;;6.23;4.00;;;25.70;46.70;;;;;;6581028;26;79771;-56
2024/04/12 07:35:48;;;;;;;6.43;3.90;;;25.70;46.70;;;;;;6581274;26;81066;-55
2024/04/12 07:38:50;;;;;;;6.95;3.50;;;25.70;46.60;;;;;;6582325;26;79979;-51
2024/04/12 07:41:51;;;;;;;9.93;4.05;;;25.70;46.90;;;;;;6582174;26;79896;-55
2024/04/12 07:44:52;;;;;;;4.95;3.90;;;25.70;47.50;;;;;;6581086;26;78758;-55
2024/04/12 07:47:53;;;;;;;8.82;4.07;;;25.70;47.00;;;;;;6580448;26;80867;-58
2024/04/12 07:50:59;;;;;;;6.25;3.72;;;25.70;46.90;;;;;;6576830;26;86407;-52
2024/04/12 07:54:06;;;;;;;7.75;3.85;;;25.70;46.90;;;;;;6580821;26;79097;-51
2024/04/12 07:57:13;;;;;;;6.15;3.92;;;25.80;47.00;;;;;;6577784;26;79427;-49
2024/04/12 08:00:16;;;;;;;5.00;3.38;;;25.80;46.90;;;;;;6580301;26;83397;-56
2024/04/12 08:03:17;;;;;;;6.28;3.78;;;25.80;46.70;;;;;;6580501;26;80357;-55
2024/04/12 08:06:36;;;;;;;5.90;3.83;;;25.80;46.70;;;;;;6581596;26;78829;-55
2024/04/12 08:09:44;;;;;;;8.13;3.38;;;25.80;46.70;;;;;;6598965;26;78792;-57
2024/04/12 08:12:49;;;;;;;11.73;3.50;;;25.80;46.70;;;;;;6577885;26;79091;-53
2024/04/12 08:15:52;;;;;;;9.70;3.97;;;25.80;46.70;;;;;;6600804;26;79256;-59
2024/04/12 08:18:54;;;;;;;5.28;3.80;;;25.80;46.90;;;;;;6580600;26;80695;-62
2024/04/12 08:21:55;;;;;;;8.55;3.92;;;25.90;46.90;;;;;;6580309;26;79290;-60
2024/04/12 08:24:57;;;;;;;12.80;3.75;;;25.90;46.70;;;;;;6586913;26;79101;-60
2024/04/12 08:27:58;;;;;;;7.10;3.22;;;25.90;46.50;;;;;;6580908;26;79128;-61
2024/04/12 08:31:05;;;;;;;7.00;3.58;;;25.90;46.60;;;;;;6581461;26;80711;-61
2024/04/12 08:34:07;;;;;;;4.95;3.60;;;25.90;46.60;;;;;;6579101;26;80603;-60
2024/04/12 08:37:12;;;;;;;9.38;3.85;;;25.90;46.50;;;;;;6581330;26;79140;-62
2024/04/12 08:40:13;;;;;;;;;;;25.90;46.40;;;;;;6582131;26;79759;-60
2024/04/12 08:43:15;;;;;;;6.15;3.53;;;25.90;46.30;;;;;;6588928;26;78425;-63
2024/04/12 08:46:17;;;;;;;4.63;3.08;;;25.90;46.30;;;;;;6581879;26;78664;-60
2024/04/12 08:49:18;;;;;;;4.70;3.10;;;25.90;46.90;;;;;;6580994;26;78733;-59
2024/04/12 08:52:25;;;;;;;7.40;3.97;;;25.90;46.20;;;;;;6581289;26;79422;-62
2024/04/12 08:55:28;;;;;;;8.10;3.38;;;25.90;46.20;;;;;;6581988;26;78698;-63
2024/04/12 08:58:30;;;;;;;6.32;3.33;;;25.90;46.20;;;;;;6581498;26;84653;-65
2024/04/12 09:01:31;;;;;;;8.73;3.00;;;25.90;46.30;;;;;;6582991;26;78761;-64
2024/04/12 09:04:31;;;;;;;6.07;3.25;;;26.00;46.30;;;;;;6558486;26;79900;-64
2024/04/12 09:07:35;;;;;;;7.07;2.90;;;26.00;46.20;;;;;;6581163;26;79335;-63
2024/04/12 09:10:36;;;;;;;12.68;3.28;;;26.00;46.10;;;;;;6578439;26;79700;-60
2024/04/12 09:13:37;;;;;;;7.70;3.35;;;26.10;46.10;;;;;;6580252;26;78738;-60
2024/04/12 09:16:44;;;;;;;8.07;3.65;;;26.00;46.00;;;;;;6573638;26;80496;-61
2024/04/12 09:19:50;;;;;;;9.93;3.38;;;26.10;45.40;;;;;;6580566;26;80531;-61
2024/04/12 09:22:54;;;;;;;11.82;3.60;;;26.10;45.90;;;;;;6574791;26;79208;-60
2024/04/12 09:25:54;;;;;;;15.85;3.40;;;26.10;45.10;;;;;;6574161;26;78956;-61
2024/04/12 09:29:09;;;;;;;5.60;2.97;;;26.10;44.40;;;;;;6578107;26;79006;-58
2024/04/12 09:35:34;;;;;;;14.13;3.70;;;26.20;43.30;;;;;;6580896;26;80604;-60
2024/04/12 09:38:39;;;;;;;8.20;3.50;;;26.20;43.60;;;;;;6577596;26;79062;-58
2024/04/12 09:41:41;;;;;;;5.95;3.03;;;26.20;43.30;;;;;;6579701;26;79121;-58
2024/04/12 09:44:48;;;;;;;7.00;3.17;;;26.20;42.90;;;;;;6580143;26;79280;-59
2024/04/12 10:37:40;;;;;;;10.35;2.55;;;26.20;46.10;;;;;;6579914;26;79070;-62
2024/04/12 10:40:40;;;;;;;9.18;2.83;;;26.20;46.00;;;;;;6583120;26;80886;-61
2024/04/12 10:43:41;;;;;;;9.50;4.43;;;26.10;46.60;;;;;;6583219;26;79171;-59
2024/04/12 10:46:42;;;;;;;12.45;2.63;;;26.00;45.60;;;;;;6583092;26;79311;-60
2024/04/12 10:49:43;;;;;;;15.23;2.55;;;26.10;46.90;;;;;;6582540;26;78895;-60
2024/04/12 10:52:43;;;;;;;13.25;2.67;;;26.10;47.30;;;;;;6579500;26;79135;-62
2024/04/12 10:55:44;;;;;;;6.82;2.92;;;26.10;47.30;;;;;;6581000;26;84199;-60
2024/04/12 10:58:52;;;;;;;8.20;2.92;;;26.10;47.00;;;;;;6580997;26;79391;-60
2024/04/12 11:01:53;;;;;;;7.78;2.35;;;26.10;46.00;;;;;;6585005;26;79415;-60
2024/04/12 11:05:24;;;;;;;14.27;2.90;;;26.10;46.20;;;;;;6549988;26;79388;-60
2024/04/12 11:08:25;;;;;;;13.23;2.75;;;26.10;46.40;;;;;;6544825;26;79388;-61
2024/04/12 11:11:26;;;;;;;13.70;2.20;;;26.20;46.90;;;;;;6549793;26;86236;-61
2024/04/12 11:14:33;;;;;;;16.55;3.00;;;26.10;46.90;;;;;;6567734;26;81093;-59
2024/04/12 11:34:30;;;;;;;13.30;3.30;;;26.10;49.70;;;;;;6507790;26;80117;-59
2024/04/12 11:37:30;;;;;;;18.30;3.33;;;26.10;50.20;;;;;;6559065;26;80755;-59
2024/04/12 11:40:37;;;;;;;22.88;3.83;;;26.20;50.30;;;;;;6561899;26;79189;-59
2024/04/12 11:43:38;;;;;;;16.27;2.55;;;26.20;51.00;;;;;;6562040;26;79372;-57
2024/04/12 11:46:40;;;;;;;15.02;3.15;;;26.20;51.50;;;;;;6565003;26;81455;-59
2024/04/12 11:49:46;;;;;;;29.77;3.78;;;26.20;50.90;;;;;;6566669;26;84696;-58
2024/04/12 11:52:47;;;;;;;20.63;3.88;;;26.20;51.00;;;;;;6567460;26;78971;-57
2024/04/12 11:55:48;;;;;;;6.47;2.88;;;26.20;51.90;;;;;;6547040;26;79976;-58
2024/04/12 11:58:51;;;;;;;9.88;3.58;;;26.20;51.10;;;;;;6541394;26;82649;-59
2024/04/12 12:01:52;;;;;;;13.90;3.45;;;26.20;50.80;;;;;;6576785;26;78852;-59
2024/04/12 12:04:53;;;;;;;14.82;3.78;;;26.20;50.60;;;;;;6526574;26;80858;-60
2024/04/12 12:07:53;;;;;;;14.10;3.20;;;26.20;50.80;;;;;;6535156;26;79137;-58
2024/04/12 12:10:54;;;;;;;12.57;3.90;;;26.20;50.90;;;;;;6577021;26;79539;-58
2024/04/12 12:13:55;;;;;;;13.00;3.72;;;26.20;50.80;;;;;;6577895;26;78831;-49
2024/04/12 12:16:59;;;;;;;7.15;3.03;;;26.20;52.00;;;;;;6581786;26;80055;-50
2024/04/12 12:19:59;;;;;;;10.23;2.42;;;26.30;51.80;;;;;;6581989;26;79054;-52
2024/04/12 12:23:00;;;;;;;5.65;2.60;;;26.30;53.10;;;;;;6577705;26;78987;-54
2024/04/12 12:26:02;;;;;;;9.05;2.90;;;26.30;52.20;;;;;;6579359;26;80595;-50
2024/04/12 12:29:06;;;;;;;8.13;2.75;;;26.30;52.50;;;;;;6581857;26;78851;-52
2024/04/12 12:32:06;;;;;;;14.30;3.05;;;26.30;51.60;;;;;;6583782;26;78817;-57
2024/04/12 12:35:07;;;;;;;10.10;3.40;;;26.20;51.90;;;;;;6580760;26;79195;-59
2024/04/12 12:38:11;;;;;;;11.00;3.30;;;26.20;50.80;;;;;;6580956;26;79435;-58
2024/04/12 12:41:13;;;;;;;7.38;3.00;;;26.20;49.60;;;;;;6581127;26;80988;-57
2024/04/12 12:44:18;;;;;;;7.30;3.50;;;26.20;49.60;;;;;;6603644;26;79450;-56
2024/04/12 12:47:21;;;;;;;9.70;3.10;;;26.20;49.80;;;;;;6580504;26;80215;-57
2024/04/12 12:50:23;;;;;;;8.07;2.88;;;26.20;49.60;;;;;;6580980;26;79153;-57
2024/04/12 12:53:26;;;;;;;14.68;3.20;;;26.10;50.90;;;;;;6581507;26;82711;-56
2024/04/12 12:56:31;;;;;;;6.63;2.63;;;26.10;50.40;;;;;;6580508;26;78698;-57
2024/04/12 12:59:31;;;;;;;7.95;2.85;;;26.10;50.30;;;;;;6581673;26;78832;-57
2024/04/12 13:02:32;;;;;;;4.97;2.53;;;26.10;50.80;;;;;;6580400;26;78788;-58
2024/04/12 13:05:32;;;;;;;6.70;3.08;;;26.10;51.00;;;;;;6580784;26;79680;-58
2024/04/12 13:08:33;;;;;;;8.60;3.30;;;26.10;50.70;;;;;;6605104;26;80314;-58
2024/04/12 13:11:33;;;;;;;5.75;2.70;;;26.10;50.80;;;;;;6581253;26;79591;-56
2024/04/12 13:14:37;;;;;;;4.40;2.60;;;26.20;51.20;;;;;;6581433;26;82484;-57
2024/04/12 13:17:37;;;;;;;4.35;2.75;;;26.10;50.90;;;;;;6579129;26;78727;-57
2024/04/12 13:20:38;;;;;;;6.35;2.90;;;26.10;51.10;;;;;;6581181;26;80349;-57
2024/04/12 13:23:38;;;;;;;7.95;3.10;;;26.10;52.30;;;;;;6580090;26;78694;-57
2024/04/12 13:26:41;;;;;;;5.90;2.70;;;26.10;50.20;;;;;;6580500;26;82852;-57
2024/04/12 13:29:42;;;;;;;5.95;2.88;;;26.00;50.80;;;;;;6579857;26;78798;-58
2024/04/12 13:32:42;;;;;;;6.93;2.60;;;26.00;51.30;;;;;;6580791;26;79741;-58
2024/04/12 13:35:43;;;;;;;8.60;3.00;;;26.00;51.50;;;;;;6579786;26;85121;-58
2024/04/12 13:38:43;;;;;;;4.65;2.80;;;26.00;52.50;;;;;;6580132;26;79015;-58
2024/04/12 13:41:45;;;;;;;6.70;3.30;;;26.00;51.80;;;;;;6581461;26;79247;-57
2024/04/12 13:51:28;;;;;;;4.95;2.63;;;26.00;52.90;;;;;;6582486;26;85523;-54
2024/04/12 13:54:30;;;;;;;5.47;3.08;;;26.00;51.70;;;;;;6583999;26;79020;-50
2024/04/12 13:57:31;;;;;;;8.20;2.63;;;26.00;51.30;;;;;;6583148;26;79359;-55
2024/04/12 14:00:32;;;;;;;6.88;2.55;;;26.00;51.70;;;;;;6581821;26;79217;-55
2024/04/12 14:03:32;;;;;;;12.48;3.08;;;26.00;51.60;;;;;;6565244;26;79262;-57
2024/04/12 14:06:34;;;;;;;9.48;3.10;;;26.00;52.40;;;;;;6590841;26;80206;-59
2024/04/12 14:09:34;;;;;;;4.88;2.70;;;26.00;52.00;;;;;;6606170;26;79384;-60
2024/04/12 14:12:36;;;;;;;11.50;2.63;;;26.00;52.50;;;;;;6589435;26;78910;-60
2024/04/12 14:15:37;;;;;;;5.95;2.90;;;26.00;52.00;;;;;;6585691;26;80681;-60
2024/04/12 14:18:38;;;;;;;14.20;3.60;;;26.00;53.10;;;;;;6580916;26;80675;-59
2024/04/12 14:21:38;;;;;;;9.10;3.10;;;26.00;53.40;;;;;;6587034;26;80794;-60
2024/04/12 14:25:01;;;;;;;11.48;3.80;;;26.00;53.60;;;;;;6583671;26;82606;-60
2024/04/12 14:28:02;;;;;;;11.63;3.95;;;26.00;53.30;;;;;;6592123;26;81597;-59
2024/04/12 14:31:02;;;;;;;20.08;5.53;;;26.00;53.10;;;;;;6598408;26;80365;-58
2024/04/12 14:34:03;;;;;;;10.85;4.00;;;26.00;52.40;;;;;;6586703;26;79523;-60
2024/04/12 14:37:03;;;;;;;13.05;4.70;;;26.00;52.40;;;;;;6582591;26;82091;-59
2024/04/12 14:40:06;;;;;;;14.30;4.28;;;26.10;52.90;;;;;;6585696;26;79705;-57
2024/04/12 14:43:06;;;;;;;16.77;4.53;;;26.10;53.20;;;;;;6582721;26;78971;-60
2024/04/12 14:46:07;;;;;;;12.57;4.47;;;26.10;53.40;;;;;;6581302;26;80215;-60
2024/04/12 14:49:09;;;;;;;11.48;4.38;;;26.10;52.80;;;;;;6569075;26;80066;-60
2024/04/12 14:52:12;;;;;;;12.52;4.65;;;26.10;53.40;;;;;;6582185;26;78790;-60
2024/04/12 14:55:13;;;;;;;14.45;5.55;;;26.10;53.30;;;;;;6577231;26;79762;-60
2024/04/12 14:58:14;;;;;;;12.82;3.90;;;26.10;52.80;;;;;;6578200;26;79758;-60
2024/04/12 15:01:15;;;;;;;10.57;4.03;;;26.10;52.40;;;;;;6581387;26;79292;-60
2024/04/12 15:50:30;;;;;;;10.63;3.33;;;26.00;51.30;;;;;;6546663;26;82723;-58
2024/04/12 15:53:35;;;;;;;42.72;16.27;;;26.00;51.00;;;;;;6575992;26;79499;-59
2024/04/12 16:12:53;;;;;;;15.00;5.75;;;26.00;51.30;;;;;;6560068;26;79195;-60
2024/04/12 16:15:53;;;;;;;13.95;6.15;;;25.90;51.20;;;;;;6567087;26;79457;-55
2024/04/12 16:18:54;;;;;;;13.10;5.05;;;25.90;51.30;;;;;;6568059;26;78994;-61
2024/04/12 16:21:54;;;;;;;16.30;4.30;;;25.90;51.50;;;;;;6579856;26;79337;-57
2024/04/12 16:24:55;;;;;;;9.68;3.97;;;26.00;50.60;;;;;;6568237;26;81772;-56
2024/04/12 16:27:56;;;;;;;17.27;4.03;;;25.90;50.80;;;;;;6574459;26;78908;-57
2024/04/12 16:30:56;;;;;;;11.40;4.25;;;25.90;50.90;;;;;;6563421;26;79996;-48
2024/04/12 16:33:57;;;;;;;17.00;4.40;;;25.90;50.50;;;;;;6556790;26;83519;-60
2024/04/12 16:36:57;;;;;;;9.57;4.15;;;25.80;50.60;;;;;;6550736;26;81607;-59
2024/04/12 16:39:58;;;;;;;11.27;3.60;;;25.80;50.80;;;;;;6559481;26;82630;-55
2024/04/12 16:42:58;;;;;;;8.25;3.70;;;25.80;50.60;;;;;;6557973;26;79458;-59
2024/04/12 16:45:59;;;;;;;8.45;3.65;;;25.80;49.90;;;;;;6548263;26;83668;-59
2024/04/12 16:49:01;;;;;;;11.75;3.53;;;25.80;50.10;;;;;;6568519;26;78814;-59
2024/04/12 16:52:01;;;;;;;9.52;3.45;;;25.70;49.60;;;;;;6574119;26;79223;-51
2024/04/12 16:55:04;;;;;;;8.70;3.38;;;25.70;50.10;;;;;;6557020;26;79383;-50
2024/04/12 16:58:08;;;;;;;9.10;3.30;;;25.70;50.30;;;;;;6579539;26;81823;-51
2024/04/12 17:01:09;;;;;;;7.22;3.33;;;25.70;49.70;;;;;;6570437;26;81816;-52
2024/04/12 17:04:09;;;;;;;9.40;3.17;;;25.70;49.90;;;;;;6558364;26;79060;-49
2024/04/12 17:07:10;;;;;;;8.88;3.45;;;25.70;49.90;;;;;;6569104;26;78891;-53
2024/04/12 17:10:10;;;;;;;7.70;3.53;;;25.70;49.70;;;;;;6543460;26;79736;-58
2024/04/12 17:13:11;;;;;;;13.63;3.63;;;25.70;50.40;;;;;;6560411;26;79667;-56
2024/04/12 17:16:13;;;;;;;7.25;3.00;;;25.60;49.90;;;;;;6570862;26;80355;-55
2024/04/12 17:19:14;;;;;;;7.35;3.42;;;25.60;49.50;;;;;;6570591;26;79033;-58
2024/04/12 17:22:14;;;;;;;6.10;3.08;;;25.50;49.10;;;;;;6560590;26;78714;-53
2024/04/12 17:25:15;;;;;;;10.88;3.45;;;25.50;48.60;;;;;;6545125;26;78628;-58
2024/04/12 17:28:17;;;;;;;14.05;3.42;;;25.60;48.90;;;;;;6569948;26;79408;-57
2024/04/12 17:31:18;;;;;;;14.93;3.30;;;25.50;49.30;;;;;;6574717;26;80551;-57
2024/04/12 17:34:18;;;;;;;10.98;3.20;;;25.50;50.00;;;;;;6553703;26;80038;-58
2024/04/12 17:37:19;;;;;;;7.10;2.90;;;25.50;49.70;;;;;;6546804;26;81090;-58
2024/04/12 17:40:20;;;;;;;8.77;3.33;;;25.50;49.50;;;;;;6566446;26;84103;-54
2024/04/12 17:43:21;;;;;;;10.48;3.35;;;25.50;50.00;;;;;;6555719;26;78811;-49
2024/04/12 17:46:21;;;;;;;13.25;4.25;;;25.50;49.70;;;;;;6560338;26;78990;-44
2024/04/12 17:49:22;;;;;;;7.53;3.53;;;25.40;48.50;;;;;;6562228;26;80684;-48
2024/04/12 17:52:27;;;;;;;9.80;3.35;;;25.30;48.30;;;;;;6559762;26;80222;-48
2024/04/12 17:55:28;;;;;;;8.90;3.35;;;25.30;48.20;;;;;;6553366;26;80008;-48
2024/04/12 17:58:29;;;;;;;11.13;3.42;;;25.40;48.40;;;;;;6572044;26;78825;-52
2024/04/12 18:01:30;;;;;;;16.25;3.13;;;25.30;48.20;;;;;;6579117;26;86771;-49
2024/04/12 18:04:31;;;;;;;15.18;3.42;;;25.40;48.30;;;;;;6579751;26;79556;-60